Time;durP1;ratioP1;P1;durP2;ratioP2;P2;SDS_P1;SDS_P2;PMS_P1;PMS_P2;Temp;Humidity;BMP_temperature;BMP_pressure;BME280_temperature;BME280_humidity;BME280_pressure;Samples;Min_cycle;Max_cycle;Signal;HPM_P1;HPM_P2
2023/05/18 00:00:59;;;;;;;9.82;1.35;;;;;;;11.58;100.00;102065.81;5116635;27;20031;-52
2023/05/18 00:03:24;;;;;;;4.05;1.10;;;;;;;11.46;100.00;102069.72;5116924;27;20070;-48
2023/05/18 00:05:49;;;;;;;7.30;1.17;;;;;;;11.39;100.00;102066.06;5120452;27;20546;-49
2023/05/18 00:08:15;;;;;;;3.53;0.93;;;;;;;11.53;100.00;102060.97;5122373;27;20027;-52
2023/05/18 00:10:41;;;;;;;2.63;1.33;;;;;;;11.55;100.00;102063.47;5121407;27;20436;-49
2023/05/18 00:13:07;;;;;;;4.05;1.00;;;;;;;11.48;100.00;102062.44;5121547;27;20386;-52
2023/05/18 00:15:33;;;;;;;2.97;1.35;;;;;;;11.48;100.00;102062.44;5120762;27;20027;-49
2023/05/18 00:17:58;;;;;;;5.68;1.25;;;;;;;11.43;100.00;102064.75;5121400;27;20027;-52
2023/05/18 00:20:25;;;;;;;4.43;1.65;;;;;;;11.31;100.00;102064.19;5129702;27;20491;-52
2023/05/18 00:22:51;;;;;;;2.65;0.90;;;;;;;11.12;100.00;102060.75;5120852;27;20030;-50
2023/05/18 00:25:17;;;;;;;4.22;2.10;;;;;;;10.97;100.00;102072.06;5121653;27;20094;-52
2023/05/18 00:27:42;;;;;;;2.65;1.15;;;;;;;10.91;100.00;102074.38;5114201;27;20031;-51
2023/05/18 00:30:08;;;;;;;6.57;1.63;;;;;;;10.96;100.00;102071.25;5123689;27;20459;-49
2023/05/18 00:32:33;;;;;;;4.63;0.98;;;;;;;10.96;100.00;102068.59;5119965;27;20038;-50
2023/05/18 00:34:59;;;;;;;4.20;0.70;;;;;;;10.91;100.00;102069.06;5118662;27;20023;-53
2023/05/18 00:37:24;;;;;;;5.28;1.45;;;;;;;10.93;100.00;102071.56;5119210;27;20043;-52
2023/05/18 00:39:49;;;;;;;6.55;1.05;;;;;;;10.91;100.00;102070.88;5116496;27;20079;-54
2023/05/18 00:42:15;;;;;;;3.85;0.50;;;;;;;10.88;100.00;102065.88;5117586;27;20089;-50
2023/05/18 00:44:40;;;;;;;4.07;2.10;;;;;;;10.89;100.00;102059.59;5113921;27;20031;-52
2023/05/18 00:47:06;;;;;;;2.38;0.63;;;;;;;10.85;100.00;102066.19;5111816;27;20309;-50
2023/05/18 00:49:31;;;;;;;3.75;1.05;;;;;;;10.82;100.00;102054.06;5119212;27;20027;-53
2023/05/18 00:51:56;;;;;;;9.98;1.83;;;;;;;10.78;100.00;102065.16;5116387;27;20015;-53
2023/05/18 00:54:22;;;;;;;4.43;1.30;;;;;;;10.67;100.00;102060.91;5123048;27;20051;-51
2023/05/18 00:56:48;;;;;;;5.90;1.52;;;;;;;10.62;100.00;102068.50;5115255;27;20039;-50
2023/05/18 00:59:14;;;;;;;4.47;1.15;;;;;;;10.53;100.00;102064.91;5117884;27;20050;-50
2023/05/18 01:01:42;;;;;;;4.32;1.67;;;;;;;10.50;100.00;102067.88;5117574;27;20031;-50
2023/05/18 01:04:08;;;;;;;7.35;1.90;;;;;;;10.50;100.00;102067.88;5114207;27;20030;-52
2023/05/18 01:06:34;;;;;;;4.00;0.95;;;;;;;10.52;100.00;102070.41;5114212;27;20147;-54
2023/05/18 01:09:05;;;;;;;3.15;0.93;;;;;;;10.54;100.00;102079.03;5115253;27;20122;-53
2023/05/18 01:11:49;;;;;;;4.55;1.75;;;;;;;10.54;100.00;102082.53;5121090;27;20076;-50
2023/05/18 01:14:48;;;;;;;3.05;0.90;;;;;;;10.50;100.00;102078.50;5109872;27;20031;-53
2023/05/18 01:17:32;;;;;;;1.05;0.55;;;;;;;10.44;100.00;102074.63;5114528;27;20059;-53
2023/05/18 01:20:22;;;;;;;4.57;0.90;;;;;;;10.35;100.00;102078.19;5118288;27;20030;-50
2023/05/18 01:23:00;;;;;;;3.50;1.10;;;;;;;10.22;100.00;102082.97;5111408;27;20031;-50
2023/05/18 01:25:40;;;;;;;5.63;1.40;;;;;;;10.08;100.00;102092.28;5118639;27;20096;-51
2023/05/18 01:28:12;;;;;;;7.13;1.80;;;;;;;10.05;100.00;102095.22;5116155;27;20062;-54
2023/05/18 01:30:40;;;;;;;4.35;1.77;;;;;;;10.05;100.00;102095.22;5119865;27;20487;-51
2023/05/18 01:33:08;;;;;;;2.70;1.58;;;;;;;10.00;100.00;102086.91;5116995;27;20027;-54
2023/05/18 01:35:34;;;;;;;2.08;0.95;;;;;;;9.99;100.00;102090.50;5118301;27;20392;-51
2023/05/18 01:37:59;;;;;;;4.13;1.13;;;;;;;10.02;100.00;102082.28;5108988;27;20027;-51
2023/05/18 01:40:26;;;;;;;3.17;0.98;;;;;;;10.00;100.00;102089.53;5108302;27;20027;-51
2023/05/18 01:42:58;;;;;;;8.77;1.52;;;;;;;10.03;100.00;102089.25;5114828;27;20039;-50
2023/05/18 01:45:28;;;;;;;4.00;0.77;;;;;;;9.99;100.00;102085.22;5112000;27;20055;-50
2023/05/18 01:47:57;;;;;;;2.15;1.02;;;;;;;10.00;100.00;102084.25;5126964;27;21107;-50
2023/05/18 01:50:36;;;;;;;3.35;1.10;;;;;;;10.09;100.00;102088.63;5122281;27;20042;-52
2023/05/18 01:53:10;;;;;;;7.32;1.17;;;;;;;10.01;100.00;102091.19;5112362;27;20028;-52
2023/05/18 01:55:37;;;;;;;3.28;1.25;;;;;;;10.06;100.00;102091.59;5120137;27;20078;-54
2023/05/18 01:58:05;;;;;;;4.28;1.42;;;;;;;9.96;100.00;102093.47;5118254;27;20199;-52
2023/05/18 02:00:31;;;;;;;3.25;1.40;;;;;;;9.90;100.00;102100.19;5111668;27;20050;-51
2023/05/18 02:02:56;;;;;;;8.18;1.02;;;;;;;9.99;100.00;102096.66;5125053;27;20488;-50
2023/05/18 02:05:21;;;;;;;4.78;1.73;;;;;;;9.94;100.00;102095.41;5123898;27;20053;-51
2023/05/18 02:07:47;;;;;;;1.55;0.82;;;;;;;9.91;100.00;102095.72;5117380;27;20099;-51
2023/05/18 02:10:12;;;;;;;3.67;2.60;;;;;;;9.89;100.00;102095.88;5117517;27;20115;-50
2023/05/18 02:12:38;;;;;;;7.00;1.92;;;;;;;9.93;100.00;102102.53;5113084;27;20118;-50
2023/05/18 02:15:04;;;;;;;2.95;1.33;;;;;;;9.97;100.00;102095.97;5120394;27;20031;-49
2023/05/18 02:17:36;;;;;;;6.53;1.58;;;;;;;9.88;100.00;102096.00;5119513;27;20470;-51
2023/05/18 02:20:05;;;;;;;2.97;1.48;;;;;;;9.79;100.00;102103.88;5119773;27;20149;-50
2023/05/18 02:22:31;;;;;;;2.15;1.23;;;;;;;9.77;100.00;102100.53;5113453;27;20111;-51
2023/05/18 02:24:56;;;;;;;3.40;1.65;;;;;;;9.87;100.00;102099.66;5114149;27;20463;-53
2023/05/18 02:27:21;;;;;;;3.75;1.30;;;;;;;9.93;100.00;102093.75;5118563;27;20034;-52
2023/05/18 02:29:47;;;;;;;1.45;1.35;;;;;;;9.90;100.00;102091.41;5119919;27;20551;-49
2023/05/18 02:32:12;;;;;;;4.15;1.35;;;;;;;9.82;100.00;102092.97;5119791;27;20045;-54
2023/05/18 02:34:40;;;;;;;4.30;1.13;;;;;;;9.76;100.00;102090.91;5113639;27;20080;-48
2023/05/18 02:37:06;;;;;;;3.58;1.52;;;;;;;9.76;100.00;102090.09;5107425;27;20408;-53
2023/05/18 02:39:32;;;;;;;7.18;1.95;;;;;;;9.75;100.00;102086.59;5116679;27;20031;-53
2023/05/18 02:41:58;;;;;;;7.63;1.10;;;;;;;9.69;100.00;102091.66;5112034;27;20158;-51
2023/05/18 02:44:23;;;;;;;3.05;0.93;;;;;;;9.65;100.00;102091.09;5113032;27;20497;-50
2023/05/18 02:46:48;;;;;;;4.78;1.27;;;;;;;9.70;100.00;102093.31;5116078;27;20039;-50
2023/05/18 02:49:14;;;;;;;4.43;1.08;;;;;;;9.67;100.00;102096.25;5110635;27;20030;-49
2023/05/18 02:51:39;;;;;;;9.43;2.72;;;;;;;9.71;100.00;102092.34;5126921;27;20425;-49
2023/05/18 02:54:05;;;;;;;2.80;1.20;;;;;;;9.66;100.00;102092.78;5119610;27;20049;-52
2023/05/18 02:56:31;;;;;;;1.98;0.70;;;;;;;9.64;100.00;102096.53;5128430;27;20655;-53
2023/05/18 02:58:57;;;;;;;4.10;1.00;;;;;;;9.60;100.00;102098.63;5127099;27;20019;-52
2023/05/18 03:01:25;;;;;;;4.95;1.38;;;;;;;9.59;100.00;102091.69;5121006;27;20510;-53
2023/05/18 03:03:52;;;;;;;1.15;0.85;;;;;;;9.59;100.00;102086.38;5115670;27;20071;-50
2023/05/18 03:06:22;;;;;;;2.35;0.95;;;;;;;9.58;100.00;102090.03;5120331;27;20050;-53
2023/05/18 03:08:48;;;;;;;3.33;1.88;;;;;;;9.52;100.00;102088.75;5114787;27;20039;-52
2023/05/18 03:11:14;;;;;;;1.35;0.70;;;;;;;9.46;100.00;102094.66;5112465;27;20408;-51
2023/05/18 03:13:39;;;;;;;9.30;2.17;;;;;;;9.38;100.00;102087.41;5117032;27;20031;-53
2023/05/18 03:16:05;;;;;;;3.17;1.30;;;;;;;9.47;100.00;102091.00;5121103;27;20035;-50
2023/05/18 03:18:30;;;;;;;7.28;1.13;;;;;;;9.38;100.00;102087.41;5122193;27;20046;-52
2023/05/18 03:21:00;;;;;;;4.07;1.65;;;;;;;9.32;100.00;102085.38;5125153;27;20073;-48
2023/05/18 03:23:26;;;;;;;2.20;1.40;;;;;;;9.28;100.00;102081.31;5105627;27;20404;-48
2023/05/18 03:25:53;;;;;;;2.78;1.35;;;;;;;9.16;100.00;102085.97;5115311;27;20086;-50
2023/05/18 03:28:19;;;;;;;1.38;1.27;;;;;;;9.14;100.00;102087.09;5117541;27;20525;-52
2023/05/18 03:30:44;;;;;;;0.60;0.50;;;;;;;9.08;100.00;102077.88;5110954;27;20609;-50
2023/05/18 03:33:10;;;;;;;6.70;1.40;;;;;;;9.02;100.00;102080.28;5117324;27;20272;-51
2023/05/18 03:35:36;;;;;;;2.13;1.02;;;;;;;9.01;100.00;102087.38;5112377;27;20532;-51
2023/05/18 03:38:01;;;;;;;6.85;1.13;;;;;;;8.98;100.00;102089.44;5119650;27;20031;-51
2023/05/18 03:40:28;;;;;;;4.38;2.05;;;;;;;8.89;100.00;102084.03;5114580;27;20031;-51
2023/05/18 03:42:53;;;;;;;15.43;1.67;;;;;;;8.87;100.00;102093.09;5118617;27;20146;-48
2023/05/18 03:45:18;;;;;;;2.83;0.90;;;;;;;8.76;100.00;102087.97;5125077;27;20054;-51
2023/05/18 03:47:44;;;;;;;3.90;1.30;;;;;;;8.63;100.00;102089.06;5123525;27;20038;-51
2023/05/18 03:50:09;;;;;;;1.80;0.73;;;;;;;8.64;100.00;102090.72;5126713;27;20034;-50
2023/05/18 03:52:35;;;;;;;2.83;0.95;;;;;;;8.63;100.00;102088.22;5117153;27;20395;-53
2023/05/18 03:55:02;;;;;;;5.85;0.85;;;;;;;8.69;100.00;102083.19;5117942;27;20027;-49
2023/05/18 03:57:28;;;;;;;4.03;0.77;;;;;;;8.65;100.00;102091.59;5123156;27;20042;-50
2023/05/18 03:59:54;;;;;;;5.38;1.42;;;;;;;8.57;100.00;102091.41;5125392;27;20034;-51
2023/05/18 04:02:19;;;;;;;4.05;1.42;;;;;;;8.54;100.00;102084.59;5119802;27;20113;-52
2023/05/18 04:04:46;;;;;;;5.13;1.30;;;;;;;8.50;100.00;102091.97;5120376;27;20039;-53
2023/05/18 04:07:15;;;;;;;1.83;1.15;;;;;;;8.53;100.00;102093.50;5101978;27;20025;-54
2023/05/18 04:09:41;;;;;;;6.88;1.70;;;;;;;8.50;100.00;102094.63;5121226;27;20417;-52
2023/05/18 04:12:07;;;;;;;6.80;2.05;;;;;;;8.49;100.00;102092.97;5121539;27;20377;-53
2023/05/18 04:14:32;;;;;;;3.40;2.55;;;;;;;8.49;100.00;102097.38;5111658;27;20030;-53
2023/05/18 04:17:03;;;;;;;2.20;1.50;;;;;;;8.51;100.00;102096.28;5114377;27;20030;-51
2023/05/18 04:19:30;;;;;;;2.38;1.38;;;;;;;8.48;100.00;102096.56;5116471;27;20557;-52
2023/05/18 04:21:56;;;;;;;3.60;1.33;;;;;;;8.39;100.00;102093.88;5119339;27;20150;-51
2023/05/18 04:24:21;;;;;;;2.35;1.08;;;;;;;8.37;100.00;102091.38;5118043;27;20041;-49
2023/05/18 04:26:47;;;;;;;0.75;0.75;;;;;;;8.37;100.00;102094.03;5120276;27;20825;-50
2023/05/18 04:29:12;;;;;;;2.55;0.95;;;;;;;8.38;100.00;102098.31;5125014;27;20037;-53
2023/05/18 04:31:41;;;;;;;4.43;1.35;;;;;;;8.40;100.00;102095.59;5118998;27;20122;-52
2023/05/18 04:34:07;;;;;;;4.85;1.75;;;;;;;8.35;100.00;102098.59;5122984;27;20031;-52
2023/05/18 04:36:33;;;;;;;1.60;1.05;;;;;;;8.38;100.00;102102.78;5117180;27;20031;-50
2023/05/18 04:39:02;;;;;;;7.28;2.72;;;;;;;8.43;100.00;102104.06;5132842;27;20026;-49
2023/05/18 04:41:27;;;;;;;2.33;1.23;;;;;;;8.49;100.00;102097.38;5124905;27;20019;-50
2023/05/18 04:43:53;;;;;;;8.18;1.90;;;;;;;8.60;100.00;102110.50;5126625;27;20027;-51
2023/05/18 04:46:20;;;;;;;3.53;1.13;;;;;;;8.65;100.00;102100.34;5110404;27;20165;-51
2023/05/18 04:48:48;;;;;;;1.73;1.63;;;;;;;8.64;100.00;102116.34;5115185;27;20773;-48
2023/05/18 04:51:20;;;;;;;5.15;1.45;;;;;;;8.73;100.00;102110.22;5114075;27;20085;-52
2023/05/18 04:53:48;;;;;;;3.65;1.50;;;;;;;8.82;100.00;102111.19;5116340;27;20074;-52
2023/05/18 04:56:17;;;;;;;5.88;1.50;;;;;;;8.88;100.00;102119.41;5112443;27;20415;-49
2023/05/18 04:58:46;;;;;;;4.90;0.80;;;;;;;9.00;100.00;102129.84;5119165;27;20032;-50
2023/05/18 05:01:14;;;;;;;4.30;1.60;;;;;;;9.07;100.00;102133.59;5117376;27;20027;-51
2023/05/18 05:03:39;;;;;;;2.42;1.30;;;;;;;9.17;100.00;102129.97;5111806;27;20030;-48
2023/05/18 05:06:05;;;;;;;5.35;1.63;;;;;;;9.19;100.00;102124.53;5114786;27;20043;-50
2023/05/18 05:08:30;;;;;;;3.65;1.35;;;;;;;9.21;100.00;102129.66;5119218;27;20074;-50
2023/05/18 05:10:56;;;;;;;5.72;1.48;;;;;;;9.31;100.00;102131.31;5118588;27;20034;-53
2023/05/18 05:13:21;;;;;;;1.77;1.08;;;;;;;9.41;100.00;102136.59;5117762;27;20778;-50
2023/05/18 05:15:46;;;;;;;2.33;1.38;;;;;;;9.52;100.00;102132.94;5111609;27;20069;-51
2023/05/18 05:18:12;;;;;;;4.65;1.20;;;;;;;9.61;100.00;102132.94;5123500;27;20027;-49
2023/05/18 05:20:37;;;;;;;12.85;3.05;;;;;;;9.73;100.00;102124.78;5112863;27;20063;-50
2023/05/18 05:23:02;;;;;;;11.02;1.60;;;;;;;9.83;100.00;102128.25;5118295;27;20031;-52
2023/05/18 05:25:28;;;;;;;4.82;2.05;;;;;;;9.96;100.00;102130.56;5116485;27;20541;-52
2023/05/18 05:27:53;;;;;;;2.70;1.00;;;;;;;9.92;100.00;102135.31;5111386;27;20059;-49
2023/05/18 05:30:18;;;;;;;10.05;3.25;;;;;;;9.99;100.00;102130.25;5113682;27;20065;-48
2023/05/18 05:32:44;;;;;;;9.15;2.35;;;;;;;10.03;100.00;102131.63;5118986;27;20487;-48
2023/05/18 05:35:09;;;;;;;9.05;3.03;;;;;;;10.16;100.00;102123.34;5116636;27;20032;-51
2023/05/18 05:37:35;;;;;;;2.88;1.23;;;;;;;10.26;100.00;102124.94;5123761;27;20035;-53
2023/05/18 05:40:00;;;;;;;8.23;2.20;;;;;;;10.24;100.00;102118.13;5110634;27;20131;-50
2023/05/18 05:42:25;;;;;;;11.10;2.90;;;;;;;10.37;100.00;102105.38;5111437;27;20048;-55
2023/05/18 05:44:51;;;;;;;10.73;2.67;;;;;;;10.37;100.00;102109.84;5119710;27;20054;-51
2023/05/18 05:47:16;;;;;;;3.22;2.45;;;;;;;10.46;100.00;102107.13;5113100;27;20023;-51
2023/05/18 05:49:42;;;;;;;5.43;1.50;;;;;;;10.51;100.00;102109.34;5119843;27;20032;-48
2023/05/18 05:52:07;;;;;;;11.25;3.05;;;;;;;10.55;100.00;102110.69;5127956;27;20059;-51
2023/05/18 05:54:32;;;;;;;9.23;3.20;;;;;;;10.56;100.00;102108.88;5116290;27;20357;-52
2023/05/18 05:56:58;;;;;;;8.75;2.35;;;;;;;10.67;100.00;102101.53;5115220;27;20370;-49
2023/05/18 05:59:23;;;;;;;6.70;2.38;;;;;;;10.63;100.00;102110.78;5109530;27;20464;-50
2023/05/18 06:01:48;;;;;;;3.05;1.38;;;;;;;10.65;100.00;102119.41;5098246;27;20027;-48
2023/05/18 06:04:14;;;;;;;10.63;2.83;;;;;;;10.57;100.00;102119.34;5114136;27;20622;-52
2023/05/18 06:06:40;;;;;;;6.93;1.35;;;;;;;10.67;100.00;102125.41;5111546;27;20130;-51
2023/05/18 06:09:06;;;;;;;3.70;2.58;;;;;;;10.65;100.00;102115.94;5111258;27;20031;-49
2023/05/18 06:11:31;;;;;;;8.07;2.55;;;;;;;10.58;100.00;102133.44;5114176;27;20430;-53
2023/05/18 06:13:56;;;;;;;6.85;2.85;;;;;;;10.56;100.00;102130.09;5109446;27;20035;-51
2023/05/18 06:16:23;;;;;;;5.65;2.65;;;;;;;10.67;100.00;102121.94;5110679;27;20028;-49
2023/05/18 06:18:48;;;;;;;7.75;3.45;;;;;;;10.65;100.00;102122.06;5111541;27;20030;-50
2023/05/18 06:21:14;;;;;;;6.80;2.40;;;;;;;10.61;100.00;102128.69;5109555;27;20398;-50
2023/05/18 06:23:40;;;;;;;8.02;1.98;;;;;;;10.53;100.00;102130.41;5119267;27;20691;-53
2023/05/18 06:26:05;;;;;;;11.93;2.55;;;;;;;10.56;100.00;102138.03;5119344;27;20035;-52
2023/05/18 06:28:31;;;;;;;8.27;3.67;;;;;;;10.60;100.00;102128.81;5109269;27;20050;-48
2023/05/18 06:30:57;;;;;;;3.53;2.28;;;;;;;10.72;100.00;102132.09;5116253;27;20058;-54
2023/05/18 06:33:23;;;;;;;5.13;1.77;;;;;;;10.72;100.00;102137.41;5111810;27;20042;-54
2023/05/18 06:35:48;;;;;;;12.05;2.85;;;;;;;10.64;100.00;102148.75;5094171;27;20479;-50
2023/05/18 06:38:13;;;;;;;3.97;1.67;;;;;;;10.66;100.00;102137.03;5117013;27;20377;-50
2023/05/18 06:40:39;;;;;;;9.68;3.28;;;;;;;10.72;100.00;102134.75;5118569;27;20060;-48
2023/05/18 06:43:04;;;;;;;4.10;1.58;;;;;;;10.77;100.00;102135.13;5120989;27;20084;-53
2023/05/18 06:45:30;;;;;;;7.63;3.10;;;;;;;10.82;100.00;102138.16;5108456;27;20087;-48
2023/05/18 06:47:55;;;;;;;6.05;2.35;;;;;;;10.80;100.00;102138.28;5116838;27;20027;-51
2023/05/18 06:50:20;;;;;;;8.85;2.45;;;;;;;10.85;100.00;102133.38;5121957;27;20083;-53
2023/05/18 06:52:46;;;;;;;9.35;2.25;;;;;;;10.91;100.00;102129.25;5120387;27;20456;-51
2023/05/18 06:55:12;;;;;;;4.20;2.33;;;;;;;10.87;100.00;102131.41;5123144;27;20108;-49
2023/05/18 06:57:37;;;;;;;5.20;2.13;;;;;;;10.98;100.00;102132.16;5118516;27;20477;-51
2023/05/18 07:00:06;;;;;;;10.93;2.13;;;;;;;11.03;100.00;102130.69;5118874;27;20023;-53
2023/05/18 07:02:31;;;;;;;4.47;1.73;;;;;;;11.26;100.00;102131.03;5119082;27;20039;-50
2023/05/18 07:04:56;;;;;;;6.72;1.40;;;;;;;11.43;100.00;102125.81;5120594;27;20035;-51
2023/05/18 07:07:22;;;;;;;6.57;1.98;;;;;;;11.58;100.00;102129.56;5121886;27;20081;-48
2023/05/18 07:09:48;;;;;;;4.50;1.65;;;;;;;11.68;100.00;102119.66;5111877;27;20046;-50
2023/05/18 07:12:14;;;;;;;5.25;1.73;;;;;;;11.91;100.00;102130.59;5123397;27;20150;-51
2023/05/18 07:14:39;;;;;;;19.20;3.03;;;;;;;12.08;100.00;102123.53;5117951;27;20319;-50
2023/05/18 07:17:05;;;;;;;5.97;2.00;;;;;;;12.32;100.00;102120.13;5119016;27;20388;-49
2023/05/18 07:19:31;;;;;;;13.00;3.55;;;;;;;12.53;100.00;102129.47;5119624;27;20031;-50
2023/05/18 07:21:58;;;;;;;12.68;3.60;;;;;;;12.68;100.00;102121.69;5125434;27;20726;-49
2023/05/18 07:24:23;;;;;;;6.50;1.75;;;;;;;12.83;100.00;102120.88;5122245;27;20650;-48
2023/05/18 07:26:49;;;;;;;7.88;2.53;;;;;;;13.05;100.00;102121.19;5129683;27;20027;-50
2023/05/18 07:29:14;;;;;;;5.15;1.67;;;;;;;13.14;100.00;102106.03;5127697;27;20063;-50
2023/05/18 07:31:40;;;;;;;5.45;1.80;;;;;;;13.27;100.00;102112.53;5130339;27;20114;-53
2023/05/18 07:34:06;;;;;;;11.60;1.92;;;;;;;13.47;100.00;102114.81;5132681;27;20475;-48
2023/05/18 07:36:31;;;;;;;7.63;2.65;;;;;;;13.64;100.00;102110.28;5116663;27;20578;-48
2023/05/18 07:38:58;;;;;;;17.25;3.13;;;;;;;13.74;100.00;102111.75;5104967;27;20023;-51
2023/05/18 07:41:24;;;;;;;4.03;2.38;;;;;;;13.90;100.00;102112.69;5123161;27;20027;-51
2023/05/18 07:43:50;;;;;;;6.72;2.63;;;;;;;14.09;100.00;102114.09;5121467;27;20030;-49
2023/05/18 07:46:16;;;;;;;4.32;2.78;;;;;;;14.26;100.00;102099.66;5123491;27;20496;-49
2023/05/18 07:48:42;;;;;;;4.60;2.03;;;;;;;14.38;100.00;102105.44;5116449;27;20026;-49
2023/05/18 07:51:07;;;;;;;4.35;1.27;;;;;;;14.54;100.00;102100.03;5118038;27;20043;-54
2023/05/18 07:53:33;;;;;;;6.05;2.63;;;;;;;14.75;100.00;102094.03;5115101;27;20041;-50
2023/05/18 07:55:59;;;;;;;9.70;2.80;;;;;;;14.77;100.00;102094.69;5124561;27;20450;-49
2023/05/18 07:58:24;;;;;;;5.72;2.83;;;;;;;14.83;100.00;102093.13;5098386;27;20107;-49
2023/05/18 08:00:50;;;;;;;11.15;2.90;;;;;;;14.96;100.00;102090.66;5115025;27;20958;-48
2023/05/18 08:03:16;;;;;;;7.07;1.98;;;;;;;15.00;100.00;102088.50;5118636;27;20035;-50
2023/05/18 08:05:42;;;;;;;10.82;4.35;;;;;;;15.02;100.00;102092.63;5122986;27;20042;-50
2023/05/18 08:08:10;;;;;;;8.27;2.53;;;;;;;15.18;100.00;102090.78;5125203;27;20031;-52
2023/05/18 08:10:36;;;;;;;5.15;3.05;;;;;;;15.42;100.00;102087.06;5116929;27;20027;-49
2023/05/18 08:13:01;;;;;;;6.68;2.55;;;;;;;15.60;100.00;102081.34;5119222;27;20026;-51
2023/05/18 08:15:26;;;;;;;8.60;4.10;;;;;;;15.81;100.00;102086.78;5127438;27;20038;-50
2023/05/18 08:17:51;;;;;;;7.97;3.40;;;;;;;15.78;100.00;102083.66;5119192;27;20035;-52
2023/05/18 08:20:17;;;;;;;9.55;3.58;;;;;;;15.98;100.00;102073.19;5119676;27;20037;-49
2023/05/18 08:22:43;;;;;;;9.63;4.07;;;;;;;16.05;100.00;102074.91;5116856;27;20038;-52
2023/05/18 08:25:09;;;;;;;13.90;4.28;;;;;;;16.33;100.00;102074.19;5123474;27;20039;-48
2023/05/18 08:27:34;;;;;;;12.13;3.72;;;;;;;16.56;100.00;102068.66;5122245;27;20308;-50
2023/05/18 08:30:00;;;;;;;8.55;2.83;;;;;;;16.50;100.00;102072.13;5116380;27;20183;-48
2023/05/18 08:32:26;;;;;;;7.55;3.35;;;;;;;16.59;100.00;102062.91;5105913;27;20024;-47
2023/05/18 08:34:52;;;;;;;17.33;4.25;;;;;;;16.61;100.00;102066.22;5110951;27;20387;-50
2023/05/18 08:37:17;;;;;;;7.82;3.20;;;;;;;16.88;100.00;102059.28;5122417;27;20062;-52
2023/05/18 08:39:44;;;;;;;10.02;3.05;;;;;;;16.94;100.00;102055.81;5123719;27;20353;-47
2023/05/18 08:42:28;;;;;;;4.38;3.10;;;;;;;16.93;100.00;102056.81;5112910;27;20062;-51
2023/05/18 08:45:11;;;;;;;11.43;2.75;;;;;;;16.92;100.00;102057.03;5116390;27;20073;-49
2023/05/18 08:47:37;;;;;;;8.43;2.55;;;;;;;16.84;100.00;102058.00;5122694;27;20135;-48
2023/05/18 08:50:04;;;;;;;6.38;3.10;;;;;;;16.95;100.00;102056.66;5115298;27;20402;-50
2023/05/18 08:52:35;;;;;;;7.88;2.47;;;;;;;16.98;100.00;102049.03;5118358;27;20388;-51
2023/05/18 08:55:04;;;;;;;5.22;3.35;;;;;;;16.94;100.00;102045.09;5123583;27;20452;-53
2023/05/18 08:57:33;;;;;;;7.47;2.20;;;;;;;17.26;100.00;102042.00;5104396;27;20027;-52
2023/05/18 09:00:00;;;;;;;4.03;2.20;;;;;;;17.49;100.00;102042.53;5117703;27;20472;-48
2023/05/18 09:02:26;;;;;;;7.90;2.38;;;;;;;17.63;100.00;102044.28;5119828;27;20091;-51
2023/05/18 09:04:54;;;;;;;5.25;2.08;;;;;;;17.91;100.00;102042.53;5114604;27;20543;-49
2023/05/18 09:07:22;;;;;;;5.32;2.30;;;;;;;18.06;100.00;102038.66;5107445;27;20480;-52
2023/05/18 09:09:48;;;;;;;4.00;2.17;;;;;;;18.21;100.00;102034.97;5107616;27;20035;-50
2023/05/18 09:12:15;;;;;;;5.72;2.30;;;;;;;18.50;100.00;102026.53;5113319;27;20133;-48
2023/05/18 09:14:41;;;;;;;3.78;1.55;;;;;;;18.60;100.00;102034.19;5112045;27;20031;-49
2023/05/18 09:17:07;;;;;;;4.05;1.80;;;;;;;18.71;100.00;102033.53;5116783;27;20102;-49
2023/05/18 09:19:32;;;;;;;6.03;1.55;;;;;;;18.85;100.00;102038.97;5125468;27;20031;-48
2023/05/18 09:21:57;;;;;;;6.32;1.83;;;;;;;19.19;100.00;102037.88;5126400;27;20106;-49
2023/05/18 09:24:23;;;;;;;3.58;1.08;;;;;;;19.33;100.00;102031.41;5119449;27;20396;-53
2023/05/18 09:26:48;;;;;;;6.78;1.23;;;;;;;19.39;100.00;102033.25;5120532;27;20857;-54
2023/05/18 09:29:16;;;;;;;1.95;1.08;;;;;;;19.37;100.00;102035.34;5117268;27;20043;-54
2023/05/18 09:31:41;;;;;;;3.33;0.75;;;;;;;19.37;100.00;102034.50;5109697;27;20107;-49
2023/05/18 09:34:07;;;;;;;1.83;0.80;;;;;;;19.40;100.00;102034.91;5105376;27;20392;-50
2023/05/18 09:36:33;;;;;;;2.75;1.27;;;;;;;19.35;100.00;102031.19;5109088;27;20031;-48
2023/05/18 09:38:58;;;;;;;4.65;0.85;;;;;;;19.24;100.00;102032.69;5116452;27;20031;-50
2023/05/18 09:41:26;;;;;;;2.65;0.88;;;;;;;19.21;100.00;102034.97;5121019;27;20540;-49
2023/05/18 09:43:51;;;;;;;8.10;1.63;;;;;;;19.22;100.00;102033.94;5112822;27;20077;-53
2023/05/18 09:46:17;;;;;;;1.95;1.45;;;;;;;19.34;100.00;102030.38;5107031;27;20097;-51
2023/05/18 09:48:46;;;;;;;7.13;2.42;;;;;;;19.32;100.00;102020.88;5117458;27;20039;-49
2023/05/18 09:51:15;;;;;;;6.20;2.05;;;;;;;19.25;100.00;102028.94;5114709;27;20031;-48
2023/05/18 09:53:41;;;;;;;3.65;1.17;;;;;;;19.18;100.00;102025.47;5118098;27;20035;-54
2023/05/18 09:56:10;;;;;;;5.60;1.50;;;;;;;19.39;100.00;102024.38;5122728;27;20030;-52
2023/05/18 09:58:37;;;;;;;7.90;1.30;;;;;;;19.57;100.00;102029.88;5117387;27;20081;-50
2023/05/18 10:01:02;;;;;;;1.95;0.63;;;;;;;19.68;100.00;102027.59;5120301;27;20029;-54
2023/05/18 10:03:36;;;;;;;2.60;1.10;;;;;;;19.83;100.00;102022.78;5125460;27;20031;-53
2023/05/18 10:06:09;;;;;;;2.75;0.95;;;;;;;19.79;100.00;102026.91;5121139;27;20027;-50
2023/05/18 10:08:36;;;;;;;3.33;1.38;;;;;;;19.70;100.00;102029.03;5129745;27;20053;-51
2023/05/18 10:11:02;;;;;;;3.80;1.58;;;;;;;19.82;100.00;102026.47;5130327;27;20527;-54
2023/05/18 10:13:30;;;;;;;5.38;1.25;;;;;;;19.87;100.00;102029.34;5124561;27;20035;-50
2023/05/18 10:15:59;;;;;;;5.60;0.95;;;;;;;19.54;100.00;102021.41;5123690;27;20046;-50
2023/05/18 10:18:27;;;;;;;4.97;0.93;;;;;;;19.42;100.00;102025.81;5119817;27;20040;-50
2023/05/18 10:20:58;;;;;;;3.08;0.80;;;;;;;19.51;100.00;102021.84;5114888;27;20468;-50
2023/05/18 10:23:25;;;;;;;1.10;0.88;;;;;;;19.52;100.00;102016.25;5119846;27;20035;-50
2023/05/18 10:25:51;;;;;;;3.35;1.25;;;;;;;19.81;100.00;102028.34;5119826;27;20039;-53
2023/05/18 10:28:24;;;;;;;5.80;0.68;;;;;;;19.84;100.00;102027.09;5117501;27;20091;-48
2023/05/18 10:30:51;;;;;;;2.60;1.30;;;;;;;19.86;100.00;102029.59;5124588;27;20058;-53
2023/05/18 10:33:18;;;;;;;1.92;0.50;;;;;;;20.01;100.00;102016.66;5117465;27;20394;-51
2023/05/18 10:35:44;;;;;;;9.63;1.63;;;;;;;19.99;100.00;102019.56;5114436;27;20063;-52
2023/05/18 10:38:10;;;;;;;2.53;0.70;;;;;;;19.73;100.00;102023.22;5132428;27;20035;-52
2023/05/18 10:40:36;;;;;;;7.28;1.38;;;;;;;19.81;100.00;102025.66;5128822;27;20472;-51
2023/05/18 10:43:02;;;;;;;3.45;0.75;;;;;;;19.67;100.00;102026.78;5126942;27;20038;-49
2023/05/18 10:45:33;;;;;;;1.13;0.60;;;;;;;19.23;100.00;102022.94;5121559;27;20145;-50
2023/05/18 10:48:00;;;;;;;6.78;1.50;;;;;;;19.29;100.00;102019.44;5126357;27;20168;-49
2023/05/18 10:50:26;;;;;;;6.15;1.23;;;;;;;19.74;100.00;102022.19;5112339;27;20027;-48
2023/05/18 10:52:52;;;;;;;4.55;1.02;;;;;;;20.02;100.00;102026.38;5112363;27;20493;-49
2023/05/18 10:55:18;;;;;;;6.53;1.55;;;;;;;20.35;100.00;102022.66;5129644;27;20031;-50
2023/05/18 10:57:50;;;;;;;1.38;0.88;;;;;;;20.56;100.00;102016.09;5115175;27;20114;-48
2023/05/18 11:00:15;;;;;;;1.65;1.05;;;;;;;20.71;100.00;102023.84;5124239;27;20065;-50
2023/05/18 11:02:41;;;;;;;2.30;0.95;;;;;;;21.00;100.00;102023.13;5114626;27;20023;-54
2023/05/18 11:05:08;;;;;;;4.60;1.00;;;;;;;20.95;100.00;102020.28;5128529;27;20038;-51
2023/05/18 11:07:35;;;;;;;1.77;1.00;;;;;;;21.02;100.00;102026.44;5124299;27;20103;-52
2023/05/18 11:10:02;;;;;;;2.97;0.93;;;;;;;21.22;100.00;102028.94;5116726;27;20322;-48
2023/05/18 11:12:31;;;;;;;2.78;0.70;;;;;;;21.26;100.00;102021.19;5118906;27;20019;-48
2023/05/18 11:14:57;;;;;;;1.73;0.63;;;;;;;21.46;100.00;102021.81;5125812;27;20396;-50
2023/05/18 11:17:24;;;;;;;1.83;0.98;;;;;;;21.53;97.92;102025.28;5120794;27;20024;-51